• Join FlightAware (Why Join?)
  • Login
  • US Flag 
02:57AM EDT


 

Airport Tracker/Info


-or-


 

Live Flight TrackerFlight Track Log ✈ ASQ5685 ✈ 17-Jun-2013 ✈ KATL - KIAD

Flight Track Log - Related Links

Times and Time Zones

All times are in EDT time to prevent confusion due to time zone crossing. See the ASQ5685 flight status page for this flight to view local times or setup timezone preferences in your user account.

Time Position Orientation Groundspeed Altitude Reporting Facility
EDT Latitude Longitude Course Direction KTS MPH feet Rate Location/Type
09:33AM 33.6333 -84.4500 253° West 163 188 1,900  Level Atlanta TRACON
09:34AM 33.6167 -84.5167 253° West 214 246 3,100 1,200 Climbing Atlanta TRACON
09:34AM 33.6053 -84.5475 246° West 328 377 3,600 2,220 Climbing Atlanta Center
09:35AM 33.5447 -84.5897 210° Southwest 272 313 6,200 2,460 Climbing Atlanta Center
09:36AM 33.4697 -84.5692 167° South 282 325 8,600 2,160 Climbing Atlanta Center
09:37AM 33.4553 -84.4719 100° East 280 322 10,600 1,500 Climbing Atlanta Center
09:38AM 33.4558 -84.3575 90° East 318 366 11,600 1,200 Climbing Atlanta Center
09:39AM 33.4956 -84.2531 65° Northeast 337 388 13,000 1,200 Climbing Atlanta Center
09:40AM 33.5875 -84.1933 28° Northeast 328 377 14,100 960 Climbing Atlanta Center
09:41AM 33.6814 -84.1286 30° Northeast 364 419 15,000 960 Climbing Atlanta Center
09:42AM 33.7631 -84.0339 44° Northeast 389 448 16,100 1,020 Climbing Atlanta Center
09:43AM 33.8233 -83.9189 58° Northeast 403 464 17,100 900 Climbing Atlanta Center
09:44AM 33.8839 -83.8011 58° Northeast 409 471 18,000 840 Climbing Atlanta Center
09:45AM 33.9378 -83.6983 58° Northeast 409 471 18,800 900 Climbing Atlanta Center
09:46AM 34.0083 -83.5903 52° Northeast 414 476 19,900 900 Climbing Atlanta Center
09:47AM 34.0747 -83.4819 53° Northeast 404 465 20,700 780 Climbing Atlanta Center
09:48AM 34.1453 -83.3711 52° Northeast 409 471 21,500 780 Climbing Atlanta Center
09:49AM 34.2156 -83.2600 53° Northeast 414 476 22,300 720 Climbing Atlanta Center
09:50AM 34.2836 -83.1464 54° Northeast 414 476 23,000 600 Climbing Atlanta Center
09:51AM 34.3536 -83.0297 54° Northeast 419 482 23,500 480 Climbing Atlanta Center
09:52AM 34.4381 -82.9028 51° Northeast 427 491 24,000 480 Climbing Atlanta Center
09:53AM 34.4956 -82.8039 55° Northeast 439 505 24,500 540 Climbing Atlanta Center
09:54AM 34.5839 -82.6636 53° Northeast 439 505 25,100 480 Climbing Atlanta Center
09:55AM 34.6494 -82.5567 53° Northeast 444 511 25,500 420 Climbing Atlanta Center
09:56AM 34.7231 -82.4392 53° Northeast 439 505 26,000 540 Climbing Atlanta Center
09:57AM 34.8067 -82.3008 54° Northeast 452 520 26,600 540 Climbing Atlanta Center
09:58AM 34.8800 -82.1803 53° Northeast 452 520 27,100 480 Climbing Atlanta Center
09:59AM 34.9472 -82.0750 52° Northeast 445 512 27,600 540 Climbing Atlanta Center
10:00AM 35.0056 -81.9442 61° Northeast 440 506 28,200 600 Climbing Atlanta Center
10:01AM 35.0133 -81.7919 86° East 431 496 28,900 600 Climbing Atlanta Center
10:02AM 35.0717 -81.6683 60° Northeast 415 478 29,400 480 Climbing Atlanta Center
10:03AM 35.1483 -81.5367 55° Northeast 421 484 29,900 480 Climbing Atlanta Center
10:04AM 35.2167 -81.4153 55° Northeast 433 498 30,400 480 Climbing Atlanta Center
10:05AM 35.2869 -81.2958 54° Northeast 426 490 30,900 300 Climbing Atlanta Center
10:06AM 35.3572 -81.1739 55° Northeast 431 496 31,000  Climbing Atlanta Center
10:07AM 35.4272 -81.0492 55° Northeast 437 503 31,000  Level Atlanta Center
10:08AM 35.5033 -80.9214 54° Northeast 449 517 31,000  Level Atlanta Center
10:09AM 35.5775 -80.7958 54° Northeast 459 528 31,000  Level Atlanta Center
10:10AM 35.6511 -80.6678 55° Northeast 454 522 31,000  Level Atlanta Center
10:12AM 35.7714 -80.4561 55° Northeast 463 533 31,000  Level Washington Center
10:13AM 35.8411 -80.3297 56° Northeast 457 526 31,000  Level Washington Center
10:14AM 35.9169 -80.2008 54° Northeast 452 520 31,000  Level Washington Center
10:15AM 35.9972 -80.0669 53° Northeast 452 520 31,000  Level Washington Center
10:16AM 36.0686 -79.9400 55° Northeast 446 513 31,000  Level Washington Center
10:17AM 36.1400 -79.8128 55° Northeast 446 513 31,000  Level Washington Center
10:18AM 36.2044 -79.6978 55° Northeast 451 519 31,000  Level Washington Center
10:19AM 36.2844 -79.5550 55° Northeast 451 519 31,000 -240 Level Washington Center
10:20AM 36.3594 -79.4300 53° Northeast 451 519 30,600 -780 Descending Washington Center
10:21AM 36.4239 -79.3067 57° Northeast 451 519 29,500 -1,200 Descending Washington Center
10:22AM 36.5217 -79.1794 46° Northeast 464 534 28,200 -1,380 Descending Washington Center
10:23AM 36.6128 -79.0644 45° Northeast 464 534 26,900 -1,320 Descending Washington Center
10:24AM 36.7039 -78.9392 48° Northeast 464 534 25,700 -960 Descending Washington Center
10:25AM 36.7864 -78.8286 47° Northeast 470 541 25,000 -360 Descending Washington Center
10:26AM 36.8792 -78.7053 47° Northeast 470 541 25,000  Level Washington Center
10:27AM 36.9678 -78.5892 46° Northeast 470 541 25,000  Level Washington Center
10:28AM 37.0750 -78.4631 43° Northeast 462 532 25,000 -540 Level Washington Center
10:29AM 37.1817 -78.3631 37° Northeast 462 532 24,000 -1,020 Descending Washington Center
10:30AM 37.2944 -78.2653 35° Northeast 481 554 23,000 -1,020 Descending Washington Center
10:31AM 37.4011 -78.1669 36° Northeast 486 559 22,000 -540 Descending Washington Center
10:32AM 37.5053 -78.0711 36° Northeast 475 547 22,000  Level Washington Center
10:33AM 37.6114 -77.9747 36° Northeast 470 541 22,000 -540 Level Washington Center
10:34AM 37.7136 -77.8783 37° Northeast 464 534 21,000 -1,920 Descending Washington Center
10:35AM 37.8111 -77.7892 36° Northeast 459 528 18,300 -2,700 Descending Washington Center
10:36AM 37.9064 -77.7025 36° Northeast 438 504 15,800 -2,460 Descending Washington Center
10:37AM 37.9978 -77.6156 37° Northeast 420 483 13,300 -2,520 Descending Washington Center
10:38AM 38.0781 -77.5464 34° Northeast 407 468 10,800 -1,740 Descending Washington Center
10:39AM 38.1606 -77.4694 36° Northeast 385 443 9,900 -600 Descending Washington Center
10:40AM 38.2344 -77.4183 29° Northeast 339 390 9,700 -780 Descending Washington Center
10:41AM 38.3081 -77.3725 26° Northeast 306 352 8,400 -1,080 Descending Washington Center
10:42AM 38.3833 -77.3583 North 280 322 7,600 -960 Descending Washington Center
10:43AM 38.4606 -77.3603 359° North 270 311 6,500 -1,020 Descending Washington Center
10:44AM 38.5356 -77.3647 357° North 270 311 5,600 -900 Descending Washington Center
10:45AM 38.6106 -77.3664 359° North 270 311 4,800 -480 Descending Washington Center
10:45AM 38.6667 -77.3667 360° North 267 307 4,800 -360 Level Potomac TRACON
10:47AM 38.7500 -77.3500 North 262 302 4,200 -420 Descending Potomac TRACON
10:48AM 38.8333 -77.3500 360° North 261 300 4,000 -120 Descending Potomac TRACON
10:48AM 38.9000 -77.3500 360° North 259 298 4,000 -360 Level Potomac TRACON
10:50AM 38.9667 -77.3500 360° North 242 278 3,300 -480 Descending Potomac TRACON
10:51AM 39.0333 -77.3500 360° North 200 230 3,000 -300 Descending Potomac TRACON